Map

Track Data

SID SEASON NUMBER BASIN SUBBASIN NAME ISO_TIME NATURE LAT LON WMO_WIND WMO_PRES WMO_AGENCY TRACK_TYPE DIST2LAND LANDFALL IFLAG USA_AGENCY USA_ATCF_ID USA_LAT USA_LON USA_RECORD USA_STATUS USA_WIND USA_PRES USA_SSHS USA_R34_NE USA_R34_SE USA_R34_SW USA_R34_NW USA_R50_NE USA_R50_SE USA_R50_SW USA_R50_NW USA_R64_NE USA_R64_SE USA_R64_SW USA_R64_NW USA_POCI USA_ROCI USA_RMW USA_EYE TOKYO_LAT TOKYO_LON TOKYO_GRADE TOKYO_WIND TOKYO_PRES TOKYO_R50_DIR TOKYO_R50_LONG TOKYO_R50_SHORT TOKYO_R30_DIR TOKYO_R30_LONG TOKYO_R30_SHORT TOKYO_LAND CMA_LAT CMA_LON CMA_CAT CMA_WIND CMA_PRES HKO_LAT HKO_LON HKO_CAT HKO_WIND HKO_PRES NEWDELHI_LAT NEWDELHI_LON NEWDELHI_GRADE NEWDELHI_WIND NEWDELHI_PRES NEWDELHI_CI NEWDELHI_DP NEWDELHI_POCI REUNION_LAT REUNION_LON REUNION_TYPE REUNION_WIND REUNION_PRES REUNION_TNUM REUNION_CI REUNION_RMW REUNION_R34_NE REUNION_R34_SE REUNION_R34_SW REUNION_R34_NW REUNION_R50_NE REUNION_R50_SE REUNION_R50_SW REUNION_R50_NW REUNION_R64_NE REUNION_R64_SE REUNION_R64_SW REUNION_R64_NW BOM_LAT BOM_LON BOM_TYPE BOM_WIND BOM_PRES BOM_TNUM BOM_CI BOM_RMW BOM_R34_NE BOM_R34_SE BOM_R34_SW BOM_R34_NW BOM_R50_NE BOM_R50_SE BOM_R50_SW BOM_R50_NW BOM_R64_NE BOM_R64_SE BOM_R64_SW BOM_R64_NW BOM_ROCI BOM_POCI BOM_EYE BOM_POS_METHOD BOM_PRES_METHOD NADI_LAT NADI_LON NADI_CAT NADI_WIND NADI_PRES WELLINGTON_LAT WELLINGTON_LON WELLINGTON_WIND WELLINGTON_PRES DS824_LAT DS824_LON DS824_STAGE DS824_WIND DS824_PRES TD9636_LAT TD9636_LON TD9636_STAGE TD9636_WIND TD9636_PRES TD9635_LAT TD9635_LON TD9635_WIND TD9635_PRES TD9635_ROCI NEUMANN_LAT NEUMANN_LON NEUMANN_CLASS NEUMANN_WIND NEUMANN_PRES MLC_LAT MLC_LON MLC_CLASS MLC_WIND MLC_PRES USA_GUST BOM_GUST BOM_GUST_PER REUNION_GUST REUNION_GUST_PER USA_SEAHGT USA_SEARAD_NE USA_SEARAD_SE USA_SEARAD_SW USA_SEARAD_NW STORM_SPEED STORM_DIR
1957213N23124 1957 39 WP MM NOT_NAMED 1957-07-31 18:00:00 TS 22.6000 123.900 main 262 242 __O___________ -1 22.6000 123.900 0 1006 11 220
1957213N23124 1957 39 WP MM NOT_NAMED 1957-07-31 21:00:00 TS 22.1850 123.530 main 237 227 __P___________ -1 22.1850 123.530 0 1005 11 223
1957213N23124 1957 39 WP MM NOT_NAMED 1957-08-01 00:00:00 TS 21.8000 123.100 main 227 181 __O___________ -1 21.8000 123.100 1 23 1004 11 231
1957213N23124 1957 39 WP MM NOT_NAMED 1957-08-01 03:00:00 TS 21.4700 122.573 main 181 138 __P___________ -1 21.4700 122.573 1 26 1003 12 240
1957213N23124 1957 39 WP MM NOT_NAMED 1957-08-01 06:00:00 TS 21.2000 122.000 main 138 118 __O___________ -1 21.2000 122.000 1 29 1003 11 243
1957213N23124 1957 39 WP MM NOT_NAMED 1957-08-01 09:00:00 TS 20.9620 121.480 main 118 113 __P___________ -1 20.9620 121.480 1 29 1003 11 249
1957213N23124 1957 39 WP MM NOT_NAMED 1957-08-01 12:00:00 TS 20.8000 120.900 main 123 123 __O___________ -1 20.8000 120.900 1 29 1003 12 257
1957213N23124 1957 39 WP MM NOT_NAMED 1957-08-01 15:00:00 TS 20.6900 120.180 main 143 143 __P___________ -1 20.6900 120.180 1 29 1003 14 266
1957213N23124 1957 39 WP MM NOT_NAMED 1957-08-01 18:00:00 TS 20.7000 119.400 main 190 190 __O___________ -1 20.7000 119.400 1 29 1003 15 275
1957213N23124 1957 39 WP MM NOT_NAMED 1957-08-01 21:00:00 TS 20.8330 118.568 main 249 247 __P___________ -1 20.8330 118.568 1 26 1003 15 286
1957213N23124 1957 39 WP MM NOT_NAMED 1957-08-02 00:00:00 TS 21.1000 117.900 main 247 193 __O___________ -1 21.1000 117.900 1 23 1004 12 304
1957213N23124 1957 39 WP MM NOT_NAMED 1957-08-02 03:00:00 TS 21.4844 117.550 main 193 151 __P___________ -1 21.4844 117.550 1 23 1004 9 335
1957213N23124 1957 39 WP MM NOT_NAMED 1957-08-02 06:00:00 TS 21.9000 117.500 main 151 136 __O___________ -1 21.9000 117.500 1 23 1004 7 8
1957213N23124 1957 39 WP MM NOT_NAMED 1957-08-02 09:00:00 TS 22.2149 117.652 main 145 137 __P___________ -1 22.2149 117.652 1 23 1004 8 38
1957213N23124 1957 39 WP MM NOT_NAMED 1957-08-02 12:00:00 TS 22.5000 118.000 main 140 129 __O___________ -1 22.5000 118.000 1 23 1004 10 53
1957213N23124 1957 39 WP MM NOT_NAMED 1957-08-02 15:00:00 TS 22.7854 118.472 main 136 122 __P___________ -1 22.7854 118.472 1 23 1004 10 54
1957213N23124 1957 39 WP MM NOT_NAMED 1957-08-02 18:00:00 TS 23.1000 118.900 main 122 104 __O___________ -1 23.1000 118.900 1 23 1004 9 39
1957213N23124 1957 39 WP MM NOT_NAMED 1957-08-02 21:00:00 TS 23.4698 119.068 main 102 84 __P___________ -1 23.4698 119.068 1 1004 8 13
1957213N23124 1957 39 WP MM NOT_NAMED 1957-08-03 00:00:00 TS 23.9000 119.100 main 84 46 __O___________ -1 23.9000 119.100 0 1005 9 2
1957213N23124 1957 39 WP MM NOT_NAMED 1957-08-03 03:00:00 TS 24.3851 119.102 main 46 15 __P___________ -1 24.3851 119.102 0 1005 10 1
1957213N23124 1957 39 WP MM NOT_NAMED 1957-08-03 06:00:00 TS 24.9000 119.100 main 15 __O___________ -1 24.9000 119.100 0 1005 10 0

Digital Typhoon Data and Search

About IBTrACS Database

This database is a web-friendly format of International Best Track Archive for Climate Stewardship (IBTrACS), a global best track data archive curated by NOAA dating back to 1842.

Updated: 2021-12-01